sensor_id;sensor_type;location;lat;lon;timestamp;temperature;humidity
1686;DHT22;840;47.980;7.830;2022-12-01T00:01:04;7.80;99.90
1686;DHT22;840;47.980;7.830;2022-12-01T00:03:31;7.80;99.90
1686;DHT22;840;47.980;7.830;2022-12-01T00:06:01;7.80;99.90
1686;DHT22;840;47.980;7.830;2022-12-01T00:08:28;7.80;99.90
1686;DHT22;840;47.980;7.830;2022-12-01T00:11:02;7.80;99.90
1686;DHT22;840;47.980;7.830;2022-12-01T00:13:28;7.80;99.90
1686;DHT22;840;47.980;7.830;2022-12-01T00:15:55;7.80;99.90
1686;DHT22;840;47.980;7.830;2022-12-01T00:18:22;7.80;99.90
1686;DHT22;840;47.980;7.830;2022-12-01T00:20:50;7.80;99.90
1686;DHT22;840;47.980;7.830;2022-12-01T00:23:22;7.80;99.90
1686;DHT22;840;47.980;7.830;2022-12-01T00:25:49;7.80;99.90
1686;DHT22;840;47.980;7.830;2022-12-01T00:28:16;7.90;99.90
1686;DHT22;840;47.980;7.830;2022-12-01T00:30:43;7.90;99.90
1686;DHT22;840;47.980;7.830;2022-12-01T00:33:10;7.90;99.90
1686;DHT22;840;47.980;7.830;2022-12-01T00:35:37;7.90;99.90
1686;DHT22;840;47.980;7.830;2022-12-01T00:38:04;7.90;99.90
1686;DHT22;840;47.980;7.830;2022-12-01T00:40:33;7.80;99.90
1686;DHT22;840;47.980;7.830;2022-12-01T00:43:00;7.90;99.90
1686;DHT22;840;47.980;7.830;2022-12-01T00:45:27;7.90;99.90
1686;DHT22;840;47.980;7.830;2022-12-01T00:47:54;8.00;99.90
1686;DHT22;840;47.980;7.830;2022-12-01T00:50:21;8.00;99.90
1686;DHT22;840;47.980;7.830;2022-12-01T00:52:48;8.00;99.90
1686;DHT22;840;47.980;7.830;2022-12-01T00:55:15;8.10;99.90
1686;DHT22;840;47.980;7.830;2022-12-01T00:57:44;8.10;99.90
1686;DHT22;840;47.980;7.830;2022-12-01T01:00:13;8.10;99.90
1686;DHT22;840;47.980;7.830;2022-12-01T01:02:40;8.00;99.90
1686;DHT22;840;47.980;7.830;2022-12-01T01:05:08;8.00;99.90
1686;DHT22;840;47.980;7.830;2022-12-01T01:07:35;8.00;99.90
1686;DHT22;840;47.980;7.830;2022-12-01T01:10:03;8.00;99.90
1686;DHT22;840;47.980;7.830;2022-12-01T01:12:30;8.00;99.90
1686;DHT22;840;47.980;7.830;2022-12-01T01:14:58;8.00;99.90
1686;DHT22;840;47.980;7.830;2022-12-01T01:17:25;8.00;99.90
1686;DHT22;840;47.980;7.830;2022-12-01T01:19:53;8.00;99.90
1686;DHT22;840;47.980;7.830;2022-12-01T01:22:20;7.90;99.90
1686;DHT22;840;47.980;7.830;2022-12-01T01:24:47;7.90;99.90
1686;DHT22;840;47.980;7.830;2022-12-01T01:27:14;7.90;99.90
1686;DHT22;840;47.980;7.830;2022-12-01T01:29:41;7.90;99.90
1686;DHT22;840;47.980;7.830;2022-12-01T01:32:09;7.80;99.90
1686;DHT22;840;47.980;7.830;2022-12-01T01:34:36;7.80;99.90
1686;DHT22;840;47.980;7.830;2022-12-01T01:37:03;7.80;99.90
1686;DHT22;840;47.980;7.830;2022-12-01T01:39:30;7.70;99.90
1686;DHT22;840;47.980;7.830;2022-12-01T01:41:57;7.60;99.90
1686;DHT22;840;47.980;7.830;2022-12-01T01:44:46;7.50;99.90
1686;DHT22;840;47.980;7.830;2022-12-01T01:47:15;7.40;99.90
1686;DHT22;840;47.980;7.830;2022-12-01T01:49:45;7.30;99.90
1686;DHT22;840;47.980;7.830;2022-12-01T01:52:12;7.30;99.90
1686;DHT22;840;47.980;7.830;2022-12-01T01:54:42;7.30;99.90
1686;DHT22;840;47.980;7.830;2022-12-01T01:57:13;7.20;99.90
1686;DHT22;840;47.980;7.830;2022-12-01T01:59:42;7.20;99.90
1686;DHT22;840;47.980;7.830;2022-12-01T02:02:12;7.10;99.90
1686;DHT22;840;47.980;7.830;2022-12-01T02:04:44;7.20;99.90
1686;DHT22;840;47.980;7.830;2022-12-01T02:07:15;7.20;99.90
1686;DHT22;840;47.980;7.830;2022-12-01T02:09:42;7.30;99.90
1686;DHT22;840;47.980;7.830;2022-12-01T02:12:30;7.30;99.90
1686;DHT22;840;47.980;7.830;2022-12-01T02:15:11;7.20;99.90
1686;DHT22;840;47.980;7.830;2022-12-01T02:17:45;7.10;99.90
1686;DHT22;840;47.980;7.830;2022-12-01T02:26:45;6.80;99.90
1686;DHT22;840;47.980;7.830;2022-12-01T02:29:49;6.80;99.90
1686;DHT22;840;47.980;7.830;2022-12-01T02:32:27;6.80;99.90
1686;DHT22;840;47.980;7.830;2022-12-01T02:34:57;6.90;99.90
1686;DHT22;840;47.980;7.830;2022-12-01T02:37:30;6.80;99.90
1686;DHT22;840;47.980;7.830;2022-12-01T02:40:03;6.80;99.90
1686;DHT22;840;47.980;7.830;2022-12-01T02:42:36;6.90;99.90
1686;DHT22;840;47.980;7.830;2022-12-01T02:45:40;6.90;99.90
1686;DHT22;840;47.980;7.830;2022-12-01T02:48:14;6.80;99.90
1686;DHT22;840;47.980;7.830;2022-12-01T02:50:42;6.90;99.90
1686;DHT22;840;47.980;7.830;2022-12-01T02:53:15;7.00;99.90
1686;DHT22;840;47.980;7.830;2022-12-01T02:55:47;7.10;99.90
1686;DHT22;840;47.980;7.830;2022-12-01T02:58:15;7.10;99.90
1686;DHT22;840;47.980;7.830;2022-12-01T03:00:53;7.10;99.90
1686;DHT22;840;47.980;7.830;2022-12-01T03:03:31;7.10;99.90
1686;DHT22;840;47.980;7.830;2022-12-01T03:06:08;7.20;99.90
1686;DHT22;840;47.980;7.830;2022-12-01T03:08:43;7.20;99.90
1686;DHT22;840;47.980;7.830;2022-12-01T03:11:21;7.20;99.90
1686;DHT22;840;47.980;7.830;2022-12-01T03:14:01;7.20;99.90
1686;DHT22;840;47.980;7.830;2022-12-01T03:16:37;7.20;99.90
1686;DHT22;840;47.980;7.830;2022-12-01T03:19:11;7.20;99.90
1686;DHT22;840;47.980;7.830;2022-12-01T03:21:43;7.10;99.90
1686;DHT22;840;47.980;7.830;2022-12-01T03:24:14;7.10;99.90
1686;DHT22;840;47.980;7.830;2022-12-01T03:26:45;7.10;99.90
1686;DHT22;840;47.980;7.830;2022-12-01T03:29:15;7.10;99.90
1686;DHT22;840;47.980;7.830;2022-12-01T03:31:46;7.00;99.90
1686;DHT22;840;47.980;7.830;2022-12-01T03:34:19;6.90;99.90
1686;DHT22;840;47.980;7.830;2022-12-01T03:36:51;6.80;99.90
1686;DHT22;840;47.980;7.830;2022-12-01T03:39:22;6.90;99.90
1686;DHT22;840;47.980;7.830;2022-12-01T03:41:55;6.80;99.90
1686;DHT22;840;47.980;7.830;2022-12-01T03:44:32;6.80;99.90
1686;DHT22;840;47.980;7.830;2022-12-01T03:47:03;6.80;99.90
1686;DHT22;840;47.980;7.830;2022-12-01T03:49:34;6.80;99.90
1686;DHT22;840;47.980;7.830;2022-12-01T03:52:10;6.80;99.90
1686;DHT22;840;47.980;7.830;2022-12-01T03:54:44;6.80;99.90
1686;DHT22;840;47.980;7.830;2022-12-01T03:57:18;6.80;99.90
1686;DHT22;840;47.980;7.830;2022-12-01T03:59:47;6.90;99.90
1686;DHT22;840;47.980;7.830;2022-12-01T04:02:15;6.80;99.90
1686;DHT22;840;47.980;7.830;2022-12-01T04:04:44;6.90;99.90
1686;DHT22;840;47.980;7.830;2022-12-01T04:07:11;6.90;99.90
1686;DHT22;840;47.980;7.830;2022-12-01T04:09:39;6.90;99.90
1686;DHT22;840;47.980;7.830;2022-12-01T04:12:08;6.80;99.90
1686;DHT22;840;47.980;7.830;2022-12-01T04:14:52;6.80;99.90
1686;DHT22;840;47.980;7.830;2022-12-01T04:17:19;6.80;99.90
1686;DHT22;840;47.980;7.830;2022-12-01T04:19:48;6.80;99.90
1686;DHT22;840;47.980;7.830;2022-12-01T04:22:15;6.80;99.90
1686;DHT22;840;47.980;7.830;2022-12-01T04:24:42;6.80;99.90
1686;DHT22;840;47.980;7.830;2022-12-01T04:27:09;6.80;99.90
1686;DHT22;840;47.980;7.830;2022-12-01T04:29:36;6.80;99.90
1686;DHT22;840;47.980;7.830;2022-12-01T04:32:04;6.90;99.90
1686;DHT22;840;47.980;7.830;2022-12-01T04:34:31;6.80;99.90
1686;DHT22;840;47.980;7.830;2022-12-01T04:37:00;6.70;99.90
1686;DHT22;840;47.980;7.830;2022-12-01T04:39:27;6.70;99.90
1686;DHT22;840;47.980;7.830;2022-12-01T04:41:56;6.60;99.90
1686;DHT22;840;47.980;7.830;2022-12-01T04:44:23;6.50;99.90
1686;DHT22;840;47.980;7.830;2022-12-01T04:46:50;6.40;99.90
1686;DHT22;840;47.980;7.830;2022-12-01T04:49:18;6.30;99.90
1686;DHT22;840;47.980;7.830;2022-12-01T04:51:45;6.20;99.90
1686;DHT22;840;47.980;7.830;2022-12-01T04:54:14;6.10;99.90
1686;DHT22;840;47.980;7.830;2022-12-01T04:56:41;6.00;99.90
1686;DHT22;840;47.980;7.830;2022-12-01T04:59:08;6.10;99.90
1686;DHT22;840;47.980;7.830;2022-12-01T05:01:36;6.10;99.90
1686;DHT22;840;47.980;7.830;2022-12-01T05:04:03;6.10;99.90
1686;DHT22;840;47.980;7.830;2022-12-01T05:06:30;6.20;99.90
1686;DHT22;840;47.980;7.830;2022-12-01T05:08:59;6.20;99.90
1686;DHT22;840;47.980;7.830;2022-12-01T05:11:29;6.30;99.90
1686;DHT22;840;47.980;7.830;2022-12-01T05:13:57;6.40;99.90
1686;DHT22;840;47.980;7.830;2022-12-01T05:16:26;6.50;99.90
1686;DHT22;840;47.980;7.830;2022-12-01T05:18:54;6.50;99.90
1686;DHT22;840;47.980;7.830;2022-12-01T05:21:44;6.60;99.90
1686;DHT22;840;47.980;7.830;2022-12-01T05:24:11;6.60;99.90
1686;DHT22;840;47.980;7.830;2022-12-01T05:26:40;6.60;99.90
1686;DHT22;840;47.980;7.830;2022-12-01T05:29:08;6.50;99.90
1686;DHT22;840;47.980;7.830;2022-12-01T05:31:35;6.50;99.90
1686;DHT22;840;47.980;7.830;2022-12-01T05:34:04;6.50;99.90
1686;DHT22;840;47.980;7.830;2022-12-01T05:36:31;6.50;99.90
1686;DHT22;840;47.980;7.830;2022-12-01T05:38:58;6.50;99.90
1686;DHT22;840;47.980;7.830;2022-12-01T05:41:25;6.50;99.90
1686;DHT22;840;47.980;7.830;2022-12-01T05:43:53;6.50;99.90
1686;DHT22;840;47.980;7.830;2022-12-01T05:46:20;6.50;99.90
1686;DHT22;840;47.980;7.830;2022-12-01T05:48:47;6.50;99.90
1686;DHT22;840;47.980;7.830;2022-12-01T05:51:16;6.60;99.90
1686;DHT22;840;47.980;7.830;2022-12-01T05:53:43;6.60;99.90
1686;DHT22;840;47.980;7.830;2022-12-01T05:56:10;6.60;99.90
1686;DHT22;840;47.980;7.830;2022-12-01T05:58:38;6.60;99.90
1686;DHT22;840;47.980;7.830;2022-12-01T06:01:06;6.60;99.90
1686;DHT22;840;47.980;7.830;2022-12-01T06:03:33;6.60;99.90
1686;DHT22;840;47.980;7.830;2022-12-01T06:06:01;6.60;99.90
1686;DHT22;840;47.980;7.830;2022-12-01T06:08:28;6.40;99.90
1686;DHT22;840;47.980;7.830;2022-12-01T06:10:55;6.20;99.90
1686;DHT22;840;47.980;7.830;2022-12-01T06:13:22;6.10;99.90
1686;DHT22;840;47.980;7.830;2022-12-01T06:15:57;6.00;99.90
1686;DHT22;840;47.980;7.830;2022-12-01T06:18:28;6.00;99.90
1686;DHT22;840;47.980;7.830;2022-12-01T06:20:56;6.00;99.90
1686;DHT22;840;47.980;7.830;2022-12-01T06:23:23;6.00;99.90
1686;DHT22;840;47.980;7.830;2022-12-01T06:25:50;6.00;99.90
1686;DHT22;840;47.980;7.830;2022-12-01T06:28:18;6.00;99.90
1686;DHT22;840;47.980;7.830;2022-12-01T06:30:45;6.00;99.90
1686;DHT22;840;47.980;7.830;2022-12-01T06:33:12;6.00;99.90
1686;DHT22;840;47.980;7.830;2022-12-01T06:35:40;6.10;99.90
1686;DHT22;840;47.980;7.830;2022-12-01T06:38:07;6.20;99.90
1686;DHT22;840;47.980;7.830;2022-12-01T06:40:35;6.30;99.90
1686;DHT22;840;47.980;7.830;2022-12-01T06:43:02;6.30;99.90
1686;DHT22;840;47.980;7.830;2022-12-01T06:45:29;6.40;99.90
1686;DHT22;840;47.980;7.830;2022-12-01T06:47:57;6.40;99.90
1686;DHT22;840;47.980;7.830;2022-12-01T06:50:24;6.40;99.90
1686;DHT22;840;47.980;7.830;2022-12-01T06:52:54;6.30;99.90
1686;DHT22;840;47.980;7.830;2022-12-01T06:55:21;6.30;99.90
1686;DHT22;840;47.980;7.830;2022-12-01T06:57:48;6.20;99.90
1686;DHT22;840;47.980;7.830;2022-12-01T07:00:16;6.20;99.90
1686;DHT22;840;47.980;7.830;2022-12-01T07:02:43;6.20;99.90
1686;DHT22;840;47.980;7.830;2022-12-01T07:05:10;6.10;99.90
1686;DHT22;840;47.980;7.830;2022-12-01T07:07:38;6.00;99.90
1686;DHT22;840;47.980;7.830;2022-12-01T07:10:09;6.00;99.90
1686;DHT22;840;47.980;7.830;2022-12-01T07:12:36;6.00;99.90
1686;DHT22;840;47.980;7.830;2022-12-01T07:15:04;6.00;99.90
1686;DHT22;840;47.980;7.830;2022-12-01T07:17:32;6.00;99.90
1686;DHT22;840;47.980;7.830;2022-12-01T07:19:59;5.90;99.90
1686;DHT22;840;47.980;7.830;2022-12-01T07:22:27;5.90;99.90
1686;DHT22;840;47.980;7.830;2022-12-01T07:24:54;5.80;99.90
1686;DHT22;840;47.980;7.830;2022-12-01T07:27:23;5.80;99.90
1686;DHT22;840;47.980;7.830;2022-12-01T07:29:50;5.80;99.90
1686;DHT22;840;47.980;7.830;2022-12-01T07:32:18;5.90;99.90
1686;DHT22;840;47.980;7.830;2022-12-01T07:34:45;6.00;99.90
1686;DHT22;840;47.980;7.830;2022-12-01T07:37:12;6.00;99.90
1686;DHT22;840;47.980;7.830;2022-12-01T07:39:38;6.00;99.90
1686;DHT22;840;47.980;7.830;2022-12-01T07:42:05;6.10;99.90
1686;DHT22;840;47.980;7.830;2022-12-01T07:44:34;6.20;99.90
1686;DHT22;840;47.980;7.830;2022-12-01T07:47:01;6.10;99.90
1686;DHT22;840;47.980;7.830;2022-12-01T07:49:29;6.10;99.90
1686;DHT22;840;47.980;7.830;2022-12-01T07:51:56;6.10;99.90
1686;DHT22;840;47.980;7.830;2022-12-01T07:54:23;6.10;99.90
1686;DHT22;840;47.980;7.830;2022-12-01T07:56:50;6.20;99.90
1686;DHT22;840;47.980;7.830;2022-12-01T07:59:18;6.30;99.90
1686;DHT22;840;47.980;7.830;2022-12-01T08:01:47;6.30;99.90
1686;DHT22;840;47.980;7.830;2022-12-01T08:04:14;6.30;99.90
1686;DHT22;840;47.980;7.830;2022-12-01T08:06:41;6.40;99.90
1686;DHT22;840;47.980;7.830;2022-12-01T08:09:08;6.40;99.90
1686;DHT22;840;47.980;7.830;2022-12-01T08:11:35;6.40;99.90
1686;DHT22;840;47.980;7.830;2022-12-01T08:14:02;6.50;99.90
1686;DHT22;840;47.980;7.830;2022-12-01T08:16:29;6.50;99.90
1686;DHT22;840;47.980;7.830;2022-12-01T08:18:59;6.50;99.90
1686;DHT22;840;47.980;7.830;2022-12-01T08:21:29;6.50;99.90
1686;DHT22;840;47.980;7.830;2022-12-01T08:23:56;6.50;99.90
1686;DHT22;840;47.980;7.830;2022-12-01T08:26:24;6.50;99.90
1686;DHT22;840;47.980;7.830;2022-12-01T08:28:52;6.60;99.90
1686;DHT22;840;47.980;7.830;2022-12-01T08:31:22;6.60;99.90
1686;DHT22;840;47.980;7.830;2022-12-01T08:33:49;6.60;99.90
1686;DHT22;840;47.980;7.830;2022-12-01T08:36:18;6.60;99.90
1686;DHT22;840;47.980;7.830;2022-12-01T08:38:59;6.60;99.90
1686;DHT22;840;47.980;7.830;2022-12-01T08:41:27;6.60;99.90
1686;DHT22;840;47.980;7.830;2022-12-01T08:43:55;6.70;99.90
1686;DHT22;840;47.980;7.830;2022-12-01T08:46:24;6.70;99.90
1686;DHT22;840;47.980;7.830;2022-12-01T08:48:52;6.70;99.90
1686;DHT22;840;47.980;7.830;2022-12-01T08:51:23;6.70;99.90
1686;DHT22;840;47.980;7.830;2022-12-01T08:53:49;6.70;99.90
1686;DHT22;840;47.980;7.830;2022-12-01T08:56:19;6.70;99.90
1686;DHT22;840;47.980;7.830;2022-12-01T08:58:47;6.80;99.90
1686;DHT22;840;47.980;7.830;2022-12-01T09:01:15;6.80;99.90
1686;DHT22;840;47.980;7.830;2022-12-01T09:03:43;6.80;99.90
1686;DHT22;840;47.980;7.830;2022-12-01T09:06:12;6.90;99.90
1686;DHT22;840;47.980;7.830;2022-12-01T09:08:41;6.80;99.90
1686;DHT22;840;47.980;7.830;2022-12-01T09:11:10;6.80;99.90
1686;DHT22;840;47.980;7.830;2022-12-01T09:13:39;6.80;99.90
1686;DHT22;840;47.980;7.830;2022-12-01T09:16:09;6.80;99.90
1686;DHT22;840;47.980;7.830;2022-12-01T09:18:36;6.80;99.90
1686;DHT22;840;47.980;7.830;2022-12-01T09:21:09;6.80;99.90
1686;DHT22;840;47.980;7.830;2022-12-01T09:23:37;6.80;99.90
1686;DHT22;840;47.980;7.830;2022-12-01T09:26:06;6.70;99.90
1686;DHT22;840;47.980;7.830;2022-12-01T09:28:33;6.70;99.90
1686;DHT22;840;47.980;7.830;2022-12-01T09:31:03;6.80;99.90
1686;DHT22;840;47.980;7.830;2022-12-01T09:33:30;6.80;99.90
1686;DHT22;840;47.980;7.830;2022-12-01T09:35:58;6.80;99.90
1686;DHT22;840;47.980;7.830;2022-12-01T09:38:25;6.80;99.90
1686;DHT22;840;47.980;7.830;2022-12-01T09:40:52;6.80;99.90
1686;DHT22;840;47.980;7.830;2022-12-01T09:43:24;6.70;99.90
1686;DHT22;840;47.980;7.830;2022-12-01T09:45:54;6.70;99.90
1686;DHT22;840;47.980;7.830;2022-12-01T09:48:26;6.60;99.90
1686;DHT22;840;47.980;7.830;2022-12-01T09:50:54;6.70;99.90
1686;DHT22;840;47.980;7.830;2022-12-01T09:53:25;6.80;99.90
1686;DHT22;840;47.980;7.830;2022-12-01T09:55:54;6.60;99.90
1686;DHT22;840;47.980;7.830;2022-12-01T09:58:25;6.50;99.90
1686;DHT22;840;47.980;7.830;2022-12-01T10:00:56;6.50;99.90
1686;DHT22;840;47.980;7.830;2022-12-01T10:03:31;6.40;99.90
1686;DHT22;840;47.980;7.830;2022-12-01T10:06:02;6.30;99.90
1686;DHT22;840;47.980;7.830;2022-12-01T10:08:36;6.30;99.90
1686;DHT22;840;47.980;7.830;2022-12-01T10:11:10;6.30;99.90
1686;DHT22;840;47.980;7.830;2022-12-01T10:13:40;6.30;99.90
1686;DHT22;840;47.980;7.830;2022-12-01T10:16:09;6.30;99.90
1686;DHT22;840;47.980;7.830;2022-12-01T10:18:47;6.30;99.90
1686;DHT22;840;47.980;7.830;2022-12-01T10:21:29;6.30;99.90
1686;DHT22;840;47.980;7.830;2022-12-01T10:24:13;6.20;99.90
1686;DHT22;840;47.980;7.830;2022-12-01T10:26:50;6.00;99.90
1686;DHT22;840;47.980;7.830;2022-12-01T10:29:26;6.00;99.90
1686;DHT22;840;47.980;7.830;2022-12-01T10:31:54;6.00;99.90
1686;DHT22;840;47.980;7.830;2022-12-01T10:34:24;6.00;99.90
1686;DHT22;840;47.980;7.830;2022-12-01T10:36:52;6.00;99.90
1686;DHT22;840;47.980;7.830;2022-12-01T10:39:24;6.10;99.90
1686;DHT22;840;47.980;7.830;2022-12-01T10:42:00;6.10;99.90
1686;DHT22;840;47.980;7.830;2022-12-01T10:44:29;6.10;99.90
1686;DHT22;840;47.980;7.830;2022-12-01T10:46:57;6.00;99.90
1686;DHT22;840;47.980;7.830;2022-12-01T10:49:35;6.10;99.90
1686;DHT22;840;47.980;7.830;2022-12-01T10:52:03;6.10;99.90
1686;DHT22;840;47.980;7.830;2022-12-01T10:54:35;6.20;99.90
1686;DHT22;840;47.980;7.830;2022-12-01T10:57:03;6.20;99.90
1686;DHT22;840;47.980;7.830;2022-12-01T10:59:35;6.10;99.90
1686;DHT22;840;47.980;7.830;2022-12-01T11:02:05;6.00;99.90
1686;DHT22;840;47.980;7.830;2022-12-01T11:04:42;6.00;99.90
1686;DHT22;840;47.980;7.830;2022-12-01T11:07:18;6.00;99.90
1686;DHT22;840;47.980;7.830;2022-12-01T11:09:53;6.10;99.90
1686;DHT22;840;47.980;7.830;2022-12-01T11:12:24;6.10;99.90
1686;DHT22;840;47.980;7.830;2022-12-01T11:14:54;6.00;99.90
1686;DHT22;840;47.980;7.830;2022-12-01T11:17:26;6.10;99.90
1686;DHT22;840;47.980;7.830;2022-12-01T11:19:54;6.10;99.90
1686;DHT22;840;47.980;7.830;2022-12-01T11:22:23;6.10;99.90
1686;DHT22;840;47.980;7.830;2022-12-01T11:24:59;6.10;99.90
1686;DHT22;840;47.980;7.830;2022-12-01T11:27:29;5.90;99.90
1686;DHT22;840;47.980;7.830;2022-12-01T11:30:00;5.80;99.90
1686;DHT22;840;47.980;7.830;2022-12-01T11:32:31;5.80;99.90
1686;DHT22;840;47.980;7.830;2022-12-01T11:35:01;5.70;99.90
1686;DHT22;840;47.980;7.830;2022-12-01T11:37:31;5.70;99.90
1686;DHT22;840;47.980;7.830;2022-12-01T11:40:12;5.70;99.90
1686;DHT22;840;47.980;7.830;2022-12-01T11:42:48;5.70;99.90
1686;DHT22;840;47.980;7.830;2022-12-01T11:45:27;5.60;99.90
1686;DHT22;840;47.980;7.830;2022-12-01T11:48:01;5.60;99.90
1686;DHT22;840;47.980;7.830;2022-12-01T11:50:31;5.70;99.90
1686;DHT22;840;47.980;7.830;2022-12-01T11:52:58;5.70;99.90
1686;DHT22;840;47.980;7.830;2022-12-01T11:55:27;5.70;99.90
1686;DHT22;840;47.980;7.830;2022-12-01T11:57:58;5.80;99.90
1686;DHT22;840;47.980;7.830;2022-12-01T12:00:29;5.80;99.90
1686;DHT22;840;47.980;7.830;2022-12-01T12:03:09;5.90;99.90
1686;DHT22;840;47.980;7.830;2022-12-01T12:05:57;5.70;99.90
1686;DHT22;840;47.980;7.830;2022-12-01T12:08:38;5.70;99.90
1686;DHT22;840;47.980;7.830;2022-12-01T12:11:13;5.70;99.90
1686;DHT22;840;47.980;7.830;2022-12-01T12:14:22;5.70;99.90
1686;DHT22;840;47.980;7.830;2022-12-01T12:17:16;5.70;99.90
1686;DHT22;840;47.980;7.830;2022-12-01T12:20:01;5.60;99.90
1686;DHT22;840;47.980;7.830;2022-12-01T12:22:37;5.60;99.90
1686;DHT22;840;47.980;7.830;2022-12-01T12:25:21;5.70;99.90
1686;DHT22;840;47.980;7.830;2022-12-01T12:27:58;5.80;99.90
1686;DHT22;840;47.980;7.830;2022-12-01T12:30:36;5.90;99.90
1686;DHT22;840;47.980;7.830;2022-12-01T12:33:21;6.00;99.90
1686;DHT22;840;47.980;7.830;2022-12-01T12:35:57;6.10;99.90
1686;DHT22;840;47.980;7.830;2022-12-01T12:38:41;6.20;99.90
1686;DHT22;840;47.980;7.830;2022-12-01T12:41:20;6.30;99.90
1686;DHT22;840;47.980;7.830;2022-12-01T12:44:02;6.30;99.90
1686;DHT22;840;47.980;7.830;2022-12-01T12:46:37;6.30;99.90
1686;DHT22;840;47.980;7.830;2022-12-01T12:49:28;6.30;99.90
1686;DHT22;840;47.980;7.830;2022-12-01T12:52:02;6.30;99.90
1686;DHT22;840;47.980;7.830;2022-12-01T12:54:32;6.30;99.90
1686;DHT22;840;47.980;7.830;2022-12-01T12:57:03;6.20;99.90
1686;DHT22;840;47.980;7.830;2022-12-01T12:59:37;6.20;99.90
1686;DHT22;840;47.980;7.830;2022-12-01T13:02:11;6.20;99.90
1686;DHT22;840;47.980;7.830;2022-12-01T13:04:44;6.10;99.90
1686;DHT22;840;47.980;7.830;2022-12-01T13:07:25;6.00;99.90
1686;DHT22;840;47.980;7.830;2022-12-01T13:09:57;6.10;99.90
1686;DHT22;840;47.980;7.830;2022-12-01T13:12:27;6.00;99.90
1686;DHT22;840;47.980;7.830;2022-12-01T13:14:59;5.90;99.90
1686;DHT22;840;47.980;7.830;2022-12-01T13:17:32;6.00;99.90
1686;DHT22;840;47.980;7.830;2022-12-01T13:20:01;6.00;99.90
1686;DHT22;840;47.980;7.830;2022-12-01T13:22:31;6.00;99.90
1686;DHT22;840;47.980;7.830;2022-12-01T13:24:58;6.00;99.90
1686;DHT22;840;47.980;7.830;2022-12-01T13:27:28;6.00;99.90
1686;DHT22;840;47.980;7.830;2022-12-01T13:29:58;6.00;99.90
1686;DHT22;840;47.980;7.830;2022-12-01T13:32:32;6.00;99.90
1686;DHT22;840;47.980;7.830;2022-12-01T13:35:03;6.00;99.90
1686;DHT22;840;47.980;7.830;2022-12-01T13:37:33;5.90;99.90
1686;DHT22;840;47.980;7.830;2022-12-01T13:40:09;5.90;99.90
1686;DHT22;840;47.980;7.830;2022-12-01T13:42:42;6.00;99.90
1686;DHT22;840;47.980;7.830;2022-12-01T13:45:16;6.00;99.90
1686;DHT22;840;47.980;7.830;2022-12-01T13:47:50;6.00;99.90
1686;DHT22;840;47.980;7.830;2022-12-01T13:50:52;6.00;99.90
1686;DHT22;840;47.980;7.830;2022-12-01T13:53:25;5.90;99.90
1686;DHT22;840;47.980;7.830;2022-12-01T13:56:03;5.70;99.90
1686;DHT22;840;47.980;7.830;2022-12-01T13:58:45;5.80;99.90
1686;DHT22;840;47.980;7.830;2022-12-01T14:01:44;5.80;99.90
1686;DHT22;840;47.980;7.830;2022-12-01T14:04:31;5.90;99.90
1686;DHT22;840;47.980;7.830;2022-12-01T14:07:36;5.90;99.90
1686;DHT22;840;47.980;7.830;2022-12-01T14:10:25;5.80;99.90
1686;DHT22;840;47.980;7.830;2022-12-01T14:12:56;5.80;99.90
1686;DHT22;840;47.980;7.830;2022-12-01T14:15:39;5.90;99.90
1686;DHT22;840;47.980;7.830;2022-12-01T14:18:24;5.90;99.90
1686;DHT22;840;47.980;7.830;2022-12-01T14:20:52;5.80;99.90
1686;DHT22;840;47.980;7.830;2022-12-01T14:23:25;5.80;99.90
1686;DHT22;840;47.980;7.830;2022-12-01T14:26:08;5.70;99.90
1686;DHT22;840;47.980;7.830;2022-12-01T14:35:04;5.40;99.90
1686;DHT22;840;47.980;7.830;2022-12-01T14:37:46;5.30;99.90
1686;DHT22;840;47.980;7.830;2022-12-01T14:40:29;5.40;99.90
1686;DHT22;840;47.980;7.830;2022-12-01T14:42:56;5.30;99.90
1686;DHT22;840;47.980;7.830;2022-12-01T14:45:52;5.20;99.90
1686;DHT22;840;47.980;7.830;2022-12-01T14:48:24;5.30;99.90
1686;DHT22;840;47.980;7.830;2022-12-01T14:50:57;5.30;99.90
1686;DHT22;840;47.980;7.830;2022-12-01T14:53:30;5.40;99.90
1686;DHT22;840;47.980;7.830;2022-12-01T14:56:07;5.40;99.90
1686;DHT22;840;47.980;7.830;2022-12-01T14:58:35;5.40;99.90
1686;DHT22;840;47.980;7.830;2022-12-01T15:01:05;5.50;99.90
1686;DHT22;840;47.980;7.830;2022-12-01T15:03:36;5.40;99.90
1686;DHT22;840;47.980;7.830;2022-12-01T15:06:04;5.50;99.90
1686;DHT22;840;47.980;7.830;2022-12-01T15:08:33;5.60;99.90
1686;DHT22;840;47.980;7.830;2022-12-01T15:11:05;5.50;99.90
1686;DHT22;840;47.980;7.830;2022-12-01T15:13:43;5.50;99.90
1686;DHT22;840;47.980;7.830;2022-12-01T15:16:17;5.50;99.90
1686;DHT22;840;47.980;7.830;2022-12-01T15:18:58;5.60;99.90
1686;DHT22;840;47.980;7.830;2022-12-01T15:21:27;5.50;99.90
1686;DHT22;840;47.980;7.830;2022-12-01T15:23:57;5.60;99.90
1686;DHT22;840;47.980;7.830;2022-12-01T15:26:28;5.60;99.90
1686;DHT22;840;47.980;7.830;2022-12-01T15:29:20;5.60;99.90
1686;DHT22;840;47.980;7.830;2022-12-01T15:31:50;5.50;99.90
1686;DHT22;840;47.980;7.830;2022-12-01T15:34:20;5.40;99.90
1686;DHT22;840;47.980;7.830;2022-12-01T15:36:50;5.40;99.90
1686;DHT22;840;47.980;7.830;2022-12-01T15:39:19;5.40;99.90
1686;DHT22;840;47.980;7.830;2022-12-01T15:41:49;5.40;99.90
1686;DHT22;840;47.980;7.830;2022-12-01T15:44:25;5.30;99.90
1686;DHT22;840;47.980;7.830;2022-12-01T15:46:53;5.30;99.90
1686;DHT22;840;47.980;7.830;2022-12-01T15:49:24;5.40;99.90
1686;DHT22;840;47.980;7.830;2022-12-01T15:51:57;5.40;99.90
1686;DHT22;840;47.980;7.830;2022-12-01T15:54:29;5.40;99.90
1686;DHT22;840;47.980;7.830;2022-12-01T15:56:59;5.40;99.90
1686;DHT22;840;47.980;7.830;2022-12-01T15:59:34;5.40;99.90
1686;DHT22;840;47.980;7.830;2022-12-01T16:02:11;5.40;99.90
1686;DHT22;840;47.980;7.830;2022-12-01T16:04:40;5.40;99.90
1686;DHT22;840;47.980;7.830;2022-12-01T16:07:08;5.40;99.90
1686;DHT22;840;47.980;7.830;2022-12-01T16:09:38;5.30;99.90
1686;DHT22;840;47.980;7.830;2022-12-01T16:12:24;5.30;99.90
1686;DHT22;840;47.980;7.830;2022-12-01T16:15:04;5.40;99.90
1686;DHT22;840;47.980;7.830;2022-12-01T16:17:41;5.30;99.90
1686;DHT22;840;47.980;7.830;2022-12-01T16:20:22;5.30;99.90
1686;DHT22;840;47.980;7.830;2022-12-01T16:22:52;5.30;99.90
1686;DHT22;840;47.980;7.830;2022-12-01T16:25:28;5.30;99.90
1686;DHT22;840;47.980;7.830;2022-12-01T16:28:00;5.40;99.90
1686;DHT22;840;47.980;7.830;2022-12-01T16:30:33;5.50;99.90
1686;DHT22;840;47.980;7.830;2022-12-01T16:33:03;5.50;99.90
1686;DHT22;840;47.980;7.830;2022-12-01T16:35:32;5.50;99.90
1686;DHT22;840;47.980;7.830;2022-12-01T16:38:00;5.50;99.90
1686;DHT22;840;47.980;7.830;2022-12-01T16:40:29;5.40;99.90
1686;DHT22;840;47.980;7.830;2022-12-01T16:42:56;5.40;99.90
1686;DHT22;840;47.980;7.830;2022-12-01T16:45:25;5.50;99.90
1686;DHT22;840;47.980;7.830;2022-12-01T16:47:52;5.50;99.90
1686;DHT22;840;47.980;7.830;2022-12-01T16:50:20;5.50;99.90
1686;DHT22;840;47.980;7.830;2022-12-01T16:52:47;5.50;99.90
1686;DHT22;840;47.980;7.830;2022-12-01T16:55:29;5.50;99.90
1686;DHT22;840;47.980;7.830;2022-12-01T16:57:58;5.60;99.90
1686;DHT22;840;47.980;7.830;2022-12-01T17:00:26;5.60;99.90
1686;DHT22;840;47.980;7.830;2022-12-01T17:02:54;5.60;99.90
1686;DHT22;840;47.980;7.830;2022-12-01T17:05:22;5.60;99.90
1686;DHT22;840;47.980;7.830;2022-12-01T17:07:49;5.50;99.90
1686;DHT22;840;47.980;7.830;2022-12-01T17:10:17;5.60;99.90
1686;DHT22;840;47.980;7.830;2022-12-01T17:12:44;5.60;99.90
1686;DHT22;840;47.980;7.830;2022-12-01T17:15:11;5.70;99.90